Time;durP1;ratioP1;P1;durP2;ratioP2;P2;SDS_P1;SDS_P2;PMS_P1;PMS_P2;Temp;Humidity;BMP_temperature;BMP_pressure;BME280_temperature;BME280_humidity;BME280_pressure;Samples;Min_cycle;Max_cycle;Signal;HPM_P1;HPM_P2
2021/10/26 00:01:12;;;;;;;155.40;109.50;;;;;;;0.38;90.24;99587.37;112581;1192;61076;-75
2021/10/26 00:03:38;;;;;;;169.80;118.90;;;;;;;0.35;90.48;99592.50;112518;1192;65906;-78
2021/10/26 00:06:05;;;;;;;160.50;110.80;;;;;;;0.35;90.68;99592.66;112519;1193;61128;-76
2021/10/26 00:08:32;;;;;;;155.40;110.70;;;;;;;0.36;90.69;99592.81;112527;1193;62619;-77
2021/10/26 00:10:58;;;;;;;157.00;112.90;;;;;;;0.36;90.60;99588.27;112501;1192;61027;-78
2021/10/26 00:13:25;;;;;;;150.70;106.40;;;;;;;0.33;90.46;99587.96;112562;1193;60991;-77
2021/10/26 00:15:52;;;;;;;153.00;109.30;;;;;;;0.24;90.19;99586.20;112560;1192;61158;-78
2021/10/26 00:18:19;;;;;;;154.80;111.20;;;;;;;0.14;90.16;99590.20;112506;1193;60968;-77
2021/10/26 00:20:46;;;;;;;166.40;114.30;;;;;;;0.09;90.40;99588.52;112497;1193;62323;-75
2021/10/26 00:23:13;;;;;;;170.60;114.80;;;;;;;0.06;90.48;99590.30;112512;1192;61702;-76
2021/10/26 00:25:40;;;;;;;165.40;116.50;;;;;;;0.03;90.56;99590.52;112489;1193;61059;-78
2021/10/26 00:28:07;;;;;;;165.80;115.90;;;;;;;0.03;90.80;99591.04;112498;1192;66324;-78
2021/10/26 00:30:33;;;;;;;162.10;115.30;;;;;;;0.02;90.77;99589.14;112418;1192;61160;-76
2021/10/26 00:33:00;;;;;;;165.80;117.40;;;;;;;-0.01;90.72;99592.52;112472;1193;60965;-76
2021/10/26 00:35:28;;;;;;;167.10;112.90;;;;;;;-0.03;90.73;99589.56;112481;1192;61087;-77
2021/10/26 00:37:55;;;;;;;167.90;120.60;;;;;;;-0.10;90.59;99581.27;112442;1193;61090;-77
2021/10/26 00:40:23;;;;;;;175.50;117.30;;;;;;;-0.10;90.93;99573.24;112505;1192;66967;-78
2021/10/26 00:42:51;;;;;;;164.20;117.20;;;;;;;-0.10;90.83;99575.52;112411;1193;61065;-77
2021/10/26 00:45:18;;;;;;;166.10;118.30;;;;;;;-0.13;90.80;99581.67;112564;1192;64092;-78
2021/10/26 00:47:44;;;;;;;159.40;116.90;;;;;;;-0.15;90.92;99579.96;112509;1192;61021;-76
2021/10/26 00:50:11;;;;;;;174.40;121.80;;;;;;;-0.15;91.09;99576.98;112489;1192;61010;-76
2021/10/26 00:52:37;;;;;;;172.20;121.40;;;;;;;-0.13;91.30;99573.64;112485;1193;65700;-78
2021/10/26 00:55:05;;;;;;;161.50;112.40;;;;;;;-0.12;91.26;99569.08;112513;1184;60969;-77
2021/10/26 00:57:32;;;;;;;157.40;110.30;;;;;;;-0.09;91.18;99569.20;112507;1193;64278;-76
2021/10/26 00:59:58;;;;;;;151.50;108.00;;;;;;;-0.11;91.06;99570.11;112441;1193;61423;-78
2021/10/26 01:02:25;;;;;;;146.20;105.10;;;;;;;-0.09;91.22;99564.52;112438;1192;60956;-78
2021/10/26 01:04:52;;;;;;;140.70;101.50;;;;;;;-0.03;91.36;99571.23;112503;1192;65797;-77
2021/10/26 01:07:18;;;;;;;134.70;97.50;;;;;;;0.02;91.46;99570.45;112420;1193;61206;-77
2021/10/26 01:09:45;;;;;;;130.40;95.00;;;;;;;0.08;91.36;99571.41;112507;1193;64150;-78
2021/10/26 01:12:13;;;;;;;140.40;98.50;;;;;;;0.12;91.35;99573.09;112552;1193;61036;-75
2021/10/26 01:14:40;;;;;;;145.60;103.70;;;;;;;0.19;91.36;99567.05;112450;1192;60969;-80
2021/10/26 01:17:09;;;;;;;138.80;104.50;;;;;;;0.24;91.23;99567.85;112498;1192;67314;-77
2021/10/26 01:19:51;;;;;;;144.50;105.10;;;;;;;0.26;91.09;99563.63;112516;1177;69285;-78
2021/10/26 01:22:19;;;;;;;145.20;105.00;;;;;;;0.20;90.82;99564.92;112544;1193;63691;-80
2021/10/26 01:24:47;;;;;;;147.90;106.90;;;;;;;0.14;90.66;99564.86;112614;1193;61058;-78
2021/10/26 01:27:15;;;;;;;138.90;100.10;;;;;;;0.08;90.55;99568.09;112514;1192;60943;-77
2021/10/26 01:29:42;;;;;;;136.30;97.80;;;;;;;0.01;90.50;99568.20;112539;1192;64624;-77
2021/10/26 01:32:11;;;;;;;134.20;94.60;;;;;;;-0.04;90.66;99570.55;112389;1192;60943;-77
2021/10/26 01:34:38;;;;;;;127.40;93.50;;;;;;;-0.06;90.60;99573.36;112447;1193;64839;-78
2021/10/26 01:37:07;;;;;;;130.20;95.30;;;;;;;-0.08;90.53;99576.18;112495;1192;61023;-76
2021/10/26 01:39:35;;;;;;;145.60;98.70;;;;;;;-0.10;90.56;99575.52;112502;1192;61055;-77
2021/10/26 01:42:03;;;;;;;136.00;100.90;;;;;;;-0.14;90.43;99573.30;112510;1193;64729;-78
2021/10/26 01:44:31;;;;;;;144.10;102.00;;;;;;;-0.15;90.49;99575.06;112559;1192;61132;-77
2021/10/26 01:46:58;;;;;;;148.90;104.30;;;;;;;-0.18;90.49;99574.77;112569;1192;63967;-78
2021/10/26 01:49:24;;;;;;;151.20;106.30;;;;;;;-0.23;90.36;99575.53;112535;1192;60975;-78
2021/10/26 01:51:52;;;;;;;158.00;115.50;;;;;;;-0.31;90.38;99575.28;112203;1192;60972;-78
2021/10/26 01:54:19;;;;;;;151.20;108.90;;;;;;;-0.34;90.62;99580.05;112559;1192;65988;-77
2021/10/26 01:56:46;;;;;;;138.30;103.40;;;;;;;-0.38;90.63;99578.52;112570;1183;61029;-77
2021/10/26 01:59:13;;;;;;;133.00;95.60;;;;;;;-0.37;90.80;99577.46;112547;1192;72363;-76
2021/10/26 02:01:40;;;;;;;130.00;94.00;;;;;;;-0.33;90.91;99579.50;112546;1193;61024;-78
2021/10/26 02:04:08;;;;;;;132.40;97.00;;;;;;;-0.32;90.87;99582.64;112572;1192;61046;-77
2021/10/26 02:06:34;;;;;;;128.50;96.80;;;;;;;-0.31;90.83;99582.27;112543;1192;64494;-77
2021/10/26 02:09:01;;;;;;;144.20;106.00;;;;;;;-0.29;90.84;99576.14;112449;1193;61077;-76
2021/10/26 02:11:27;;;;;;;147.20;109.30;;;;;;;-0.23;91.04;99579.89;112530;1193;63727;-77
2021/10/26 02:13:54;;;;;;;146.50;109.80;;;;;;;-0.21;90.95;99584.23;112556;1192;61007;-76
2021/10/26 02:16:20;;;;;;;148.10;109.40;;;;;;;-0.24;90.73;99586.71;112569;1191;60978;-75
2021/10/26 02:18:47;;;;;;;149.40;107.60;;;;;;;-0.30;90.59;99586.45;112571;1192;61010;-76
2021/10/26 02:21:13;;;;;;;141.90;104.10;;;;;;;-0.35;90.63;99583.20;112522;1192;60991;-77
2021/10/26 02:23:40;;;;;;;135.80;97.50;;;;;;;-0.39;90.46;99580.29;112492;1183;63715;-76
2021/10/26 02:26:07;;;;;;;130.40;93.80;;;;;;;-0.44;90.45;99579.66;112513;1193;61021;-77
2021/10/26 02:28:33;;;;;;;124.50;88.60;;;;;;;-0.50;90.49;99586.36;112224;1192;61167;-76
2021/10/26 02:31:00;;;;;;;130.00;92.40;;;;;;;-0.53;90.37;99585.86;112515;1193;66926;-77
2021/10/26 02:33:26;;;;;;;137.40;99.40;;;;;;;-0.54;90.40;99589.55;112584;1193;61036;-76
2021/10/26 02:35:53;;;;;;;143.20;104.40;;;;;;;-0.54;90.56;99588.85;112569;1193;61004;-76
2021/10/26 02:38:19;;;;;;;145.30;106.70;;;;;;;-0.56;90.45;99593.60;112481;1193;61045;-77
2021/10/26 02:40:46;;;;;;;152.00;110.30;;;;;;;-0.60;90.45;99594.52;112424;1192;60962;-78
2021/10/26 02:43:13;;;;;;;147.40;107.40;;;;;;;-0.64;90.54;99595.25;112528;1192;66045;-78
2021/10/26 02:45:39;;;;;;;144.30;107.20;;;;;;;-0.67;90.46;99590.92;112503;1193;61081;-76
2021/10/26 02:48:06;;;;;;;140.90;102.90;;;;;;;-0.71;90.55;99589.23;112553;1192;62495;-76
2021/10/26 02:50:32;;;;;;;135.80;98.00;;;;;;;-0.74;90.54;99591.19;112429;1192;61100;-78
2021/10/26 02:52:59;;;;;;;131.90;95.10;;;;;;;-0.76;90.55;99592.79;112538;1192;61029;-77
2021/10/26 02:55:25;;;;;;;129.10;92.20;;;;;;;-0.77;90.51;99596.97;112602;1192;66059;-76
2021/10/26 02:57:52;;;;;;;133.80;98.40;;;;;;;-0.78;90.58;99598.20;112538;1193;61093;-76
2021/10/26 03:00:18;;;;;;;143.50;104.80;;;;;;;-0.77;90.76;99599.25;112574;1192;61045;-76
2021/10/26 03:02:45;;;;;;;148.20;105.90;;;;;;;-0.76;90.76;99605.35;112525;1193;61058;-77
2021/10/26 03:05:11;;;;;;;147.10;107.20;;;;;;;-0.78;90.73;99605.20;112486;1193;61055;-78
2021/10/26 03:07:46;;;;;;;147.10;107.70;;;;;;;-0.80;90.68;99600.85;112539;1192;60978;-77
2021/10/26 03:10:14;;;;;;;150.30;110.80;;;;;;;-0.84;90.84;99600.55;112619;1193;61028;-77
2021/10/26 03:12:41;;;;;;;140.10;101.70;;;;;;;-0.85;90.98;99605.77;112498;1193;63952;-78
2021/10/26 03:15:10;;;;;;;129.50;92.10;;;;;;;-0.84;90.88;99603.34;112408;1193;61120;-77
2021/10/26 03:17:38;;;;;;;132.60;94.70;;;;;;;-0.82;90.96;99602.97;112595;1193;61055;-76
2021/10/26 03:20:07;;;;;;;135.90;97.50;;;;;;;-0.79;90.99;99605.91;112575;1193;67095;-76
2021/10/26 03:22:33;;;;;;;129.10;96.50;;;;;;;-0.81;90.65;99607.49;112503;1193;61078;-76
2021/10/26 03:25:02;;;;;;;132.60;100.00;;;;;;;-0.85;90.51;99608.77;112560;1192;63713;-78
2021/10/26 03:27:30;;;;;;;148.10;105.50;;;;;;;-0.91;90.49;99612.13;112481;1192;60974;-75
2021/10/26 03:29:56;;;;;;;135.60;101.90;;;;;;;-0.95;90.60;99614.27;112532;1192;61081;-78
2021/10/26 03:32:23;;;;;;;151.80;107.30;;;;;;;-0.98;90.59;99613.60;112569;1193;66674;-78
2021/10/26 03:34:50;;;;;;;150.70;107.00;;;;;;;-1.03;90.62;99611.38;112550;1192;61614;-79
2021/10/26 03:37:16;;;;;;;145.00;104.90;;;;;;;-1.08;90.63;99605.34;112585;1192;61081;-78
2021/10/26 03:39:44;;;;;;;138.70;99.00;;;;;;;-1.14;90.53;99608.19;112573;1192;61011;-78
2021/10/26 03:42:11;;;;;;;133.40;97.90;;;;;;;-1.17;90.68;99610.13;112448;1192;61178;-78
2021/10/26 03:44:37;;;;;;;151.80;106.70;;;;;;;-1.16;90.92;99609.77;112541;1192;64967;-78
2021/10/26 03:47:04;;;;;;;148.60;101.80;;;;;;;-1.14;90.88;99607.31;112548;1192;61083;-78
2021/10/26 03:49:30;;;;;;;140.30;99.10;;;;;;;-1.12;91.08;99607.81;112544;1192;60969;-77
2021/10/26 03:51:57;;;;;;;151.60;110.20;;;;;;;-1.08;91.25;99607.95;112539;1192;60971;-76
2021/10/26 03:54:24;;;;;;;138.40;102.20;;;;;;;-1.04;91.26;99611.22;112591;1192;61109;-78
2021/10/26 03:56:52;;;;;;;166.40;114.70;;;;;;;-1.06;91.21;99608.98;112522;1187;61113;-76
2021/10/26 03:59:19;;;;;;;152.70;113.70;;;;;;;-1.06;91.41;99610.36;112504;1193;61052;-77
2021/10/26 04:01:45;;;;;;;150.30;113.20;;;;;;;-1.04;91.61;99610.88;112319;1193;63746;-78
2021/10/26 04:04:12;;;;;;;141.60;108.60;;;;;;;-1.04;91.61;99607.91;112513;1192;61068;-77
2021/10/26 04:06:42;;;;;;;148.80;113.10;;;;;;;-1.04;91.56;99604.95;112521;1192;61000;-77
2021/10/26 04:09:11;;;;;;;145.20;107.30;;;;;;;-1.02;91.66;99602.30;112521;1193;64815;-76
2021/10/26 04:11:56;;;;;;;149.70;112.90;;;;;;;-0.98;91.74;99605.05;112581;1192;61052;-77
2021/10/26 04:14:22;;;;;;;153.20;115.80;;;;;;;-0.96;91.69;99608.17;112564;1193;62317;-77
2021/10/26 04:16:49;;;;;;;153.10;115.20;;;;;;;-0.93;91.69;99608.13;112560;1193;61171;-77
2021/10/26 04:19:15;;;;;;;153.70;110.00;;;;;;;-0.91;91.63;99610.20;112533;1192;60968;-78
2021/10/26 04:21:42;;;;;;;153.20;113.20;;;;;;;-0.96;91.22;99609.58;112541;1183;60997;-77
2021/10/26 04:24:08;;;;;;;149.80;109.80;;;;;;;-1.04;91.11;99612.60;112374;1193;61058;-76
2021/10/26 04:26:35;;;;;;;147.80;106.40;;;;;;;-1.06;91.28;99613.85;112478;1193;64001;-78
2021/10/26 04:29:02;;;;;;;138.40;100.40;;;;;;;-1.06;91.30;99609.31;112517;1192;61306;-77
2021/10/26 04:31:29;;;;;;;137.10;103.00;;;;;;;-1.07;91.35;99610.89;112538;1192;61058;-76
2021/10/26 04:33:55;;;;;;;141.70;101.80;;;;;;;-1.11;91.14;99607.27;112502;1193;61655;-77
2021/10/26 04:36:22;;;;;;;143.00;104.70;;;;;;;-1.10;91.38;99604.14;112516;1192;61080;-76
2021/10/26 04:38:48;;;;;;;154.00;109.00;;;;;;;-1.08;91.37;99607.23;112526;1193;61138;-79
2021/10/26 04:41:15;;;;;;;157.90;117.60;;;;;;;-1.12;91.30;99605.71;112519;1187;61001;-78
2021/10/26 04:43:41;;;;;;;162.70;115.80;;;;;;;-1.12;91.46;99606.94;111677;1193;1002626;-76
2021/10/26 04:46:08;;;;;;;158.80;114.50;;;;;;;-1.08;91.57;99603.23;112533;1192;61059;-77
2021/10/26 04:48:34;;;;;;;164.60;119.10;;;;;;;-1.10;91.38;99603.79;112436;1192;61039;-77
2021/10/26 04:51:01;;;;;;;154.00;113.30;;;;;;;-1.17;91.27;99604.36;112501;1192;62444;-77
2021/10/26 04:53:28;;;;;;;147.20;110.60;;;;;;;-1.19;91.35;99603.16;112518;1192;61023;-77
2021/10/26 04:55:54;;;;;;;136.50;99.60;;;;;;;-1.20;91.27;99604.58;112330;1192;61033;-75
2021/10/26 04:58:21;;;;;;;133.20;99.00;;;;;;;-1.21;91.32;99604.59;112501;1192;61744;-76
2021/10/26 05:00:47;;;;;;;139.30;101.50;;;;;;;-1.20;91.38;99606.32;112518;1193;61023;-76
2021/10/26 05:03:14;;;;;;;150.10;107.20;;;;;;;-1.19;91.38;99607.02;112540;1192;72496;-76
2021/10/26 05:05:40;;;;;;;154.50;113.70;;;;;;;-1.18;91.34;99606.83;112544;1192;61045;-76
2021/10/26 05:08:07;;;;;;;160.00;111.10;;;;;;;-1.18;91.37;99605.44;112614;1192;60952;-77
2021/10/26 05:10:33;;;;;;;162.10;114.00;;;;;;;-1.22;91.10;99604.76;112515;1192;66675;-76
2021/10/26 05:13:00;;;;;;;164.20;115.80;;;;;;;-1.27;91.20;99598.89;112347;1177;61055;-76
2021/10/26 05:15:27;;;;;;;155.90;111.90;;;;;;;-1.28;91.37;99602.92;112558;1192;63662;-75
2021/10/26 05:17:54;;;;;;;154.50;110.10;;;;;;;-1.27;91.41;99607.08;112483;1192;60990;-78
2021/10/26 05:20:22;;;;;;;153.30;104.50;;;;;;;-1.24;91.45;99608.45;112541;1192;61052;-75
2021/10/26 05:22:51;;;;;;;146.90;107.60;;;;;;;-1.23;91.43;99609.14;112514;1191;64564;-76
2021/10/26 05:25:19;;;;;;;149.10;104.50;;;;;;;-1.19;91.60;99609.98;112527;1192;61049;-77
2021/10/26 05:27:46;;;;;;;146.50;103.90;;;;;;;-1.14;91.65;99614.11;112588;1193;63937;-76
2021/10/26 05:30:14;;;;;;;138.30;101.00;;;;;;;-1.09;91.75;99616.86;112507;1192;61132;-77
2021/10/26 05:32:40;;;;;;;135.40;98.60;;;;;;;-1.08;91.96;99619.45;112575;1192;61036;-77
2021/10/26 05:35:08;;;;;;;141.10;101.40;;;;;;;-1.00;92.09;99623.74;112510;1192;65798;-77
2021/10/26 05:37:34;;;;;;;134.30;99.00;;;;;;;-0.93;91.89;99625.07;112469;1192;69656;-77
2021/10/26 05:40:01;;;;;;;130.20;101.90;;;;;;;-0.88;91.81;99626.58;112504;1192;64583;-77
2021/10/26 05:42:28;;;;;;;142.70;109.20;;;;;;;-0.81;91.76;99622.15;112533;1193;61004;-77
2021/10/26 05:44:55;;;;;;;144.40;107.50;;;;;;;-0.76;91.71;99619.11;112506;1186;61081;-78
2021/10/26 05:47:22;;;;;;;149.00;108.50;;;;;;;-0.73;91.67;99623.45;112567;1193;64466;-77
2021/10/26 05:49:49;;;;;;;151.00;109.70;;;;;;;-0.70;91.49;99633.18;112403;1193;61106;-75
2021/10/26 05:52:17;;;;;;;155.20;111.40;;;;;;;-0.69;91.42;99633.00;112521;1192;64128;-76
2021/10/26 05:54:43;;;;;;;139.50;105.50;;;;;;;-0.69;91.31;99632.13;112570;1193;61029;-76
2021/10/26 05:57:10;;;;;;;145.10;104.70;;;;;;;-0.66;91.33;99639.08;112538;1192;60927;-76
2021/10/26 05:59:36;;;;;;;135.70;99.10;;;;;;;-0.63;91.35;99640.44;112538;1192;65756;-77
2021/10/26 06:02:03;;;;;;;135.80;96.80;;;;;;;-0.57;91.30;99640.20;112408;1192;61100;-78
2021/10/26 06:04:30;;;;;;;127.60;91.90;;;;;;;-0.50;91.25;99642.55;112481;1193;63686;-77
2021/10/26 06:06:56;;;;;;;128.30;94.00;;;;;;;-0.43;91.23;99641.09;112521;1192;61080;-77
2021/10/26 06:09:24;;;;;;;133.60;102.50;;;;;;;-0.35;91.18;99649.02;112519;1192;61001;-77
2021/10/26 06:11:51;;;;;;;145.30;106.60;;;;;;;-0.28;91.17;99652.60;112485;1193;66022;-75
2021/10/26 06:14:18;;;;;;;146.50;109.10;;;;;;;-0.22;91.15;99654.98;112524;1192;61016;-77
2021/10/26 06:16:45;;;;;;;167.70;121.10;;;;;;;-0.12;91.11;99655.36;112508;1193;64880;-76
2021/10/26 06:19:12;;;;;;;152.90;114.40;;;;;;;-0.03;91.09;99653.33;112485;1193;61055;-76
2021/10/26 06:21:38;;;;;;;140.50;104.30;;;;;;;0.05;91.00;99655.48;112480;1192;61062;-77
2021/10/26 06:24:05;;;;;;;136.30;100.20;;;;;;;0.14;90.98;99658.85;112509;1192;61125;-76
2021/10/26 06:26:32;;;;;;;137.50;99.50;;;;;;;0.25;91.04;99662.89;112563;1193;60979;-77
2021/10/26 06:28:59;;;;;;;125.50;94.70;;;;;;;0.37;91.03;99668.14;112511;1193;63625;-76
2021/10/26 06:31:27;;;;;;;120.00;91.30;;;;;;;0.47;91.03;99667.29;112369;1193;61036;-76
2021/10/26 06:33:53;;;;;;;124.80;89.70;;;;;;;0.62;90.92;99668.98;112534;1193;61039;-77
2021/10/26 06:36:20;;;;;;;122.00;92.80;;;;;;;0.79;90.83;99669.92;112513;1187;61084;-76
2021/10/26 06:38:47;;;;;;;115.00;86.60;;;;;;;0.97;90.77;99673.82;112591;1193;61093;-76
2021/10/26 06:41:14;;;;;;;110.60;79.10;;;;;;;1.11;90.49;99676.55;112532;1192;62333;-76
2021/10/26 06:43:40;;;;;;;114.90;80.30;;;;;;;1.24;90.33;99673.71;112533;1192;61709;-76
2021/10/26 06:46:07;;;;;;;109.10;79.80;;;;;;;1.35;90.25;99671.39;112580;1193;61049;-76
2021/10/26 06:48:34;;;;;;;107.80;77.90;;;;;;;1.46;90.10;99671.71;112533;1193;64707;-79
2021/10/26 06:51:00;;;;;;;98.50;75.30;;;;;;;1.58;89.96;99668.70;112552;1192;61049;-77
2021/10/26 06:53:27;;;;;;;101.00;72.30;;;;;;;1.72;89.90;99670.70;112340;1192;62337;-78
2021/10/26 06:55:58;;;;;;;96.70;71.30;;;;;;;1.85;89.83;99668.66;112556;1193;61036;-78
2021/10/26 06:58:25;;;;;;;95.40;71.90;;;;;;;1.99;89.79;99671.01;112573;1193;60936;-78
2021/10/26 07:00:52;;;;;;;98.70;78.30;;;;;;;2.12;89.78;99667.05;112533;1192;65812;-77
2021/10/26 07:03:19;;;;;;;106.50;80.20;;;;;;;2.25;89.67;99670.08;112565;1193;61061;-78
2021/10/26 07:05:45;;;;;;;105.00;85.50;;;;;;;2.38;89.47;99672.27;112448;1193;63682;-76
2021/10/26 07:08:12;;;;;;;109.60;85.40;;;;;;;2.49;89.38;99665.86;112397;1193;61052;-79
2021/10/26 07:10:38;;;;;;;102.40;79.70;;;;;;;2.60;89.25;99672.09;112514;1192;60939;-78
2021/10/26 07:13:06;;;;;;;94.80;74.50;;;;;;;2.69;89.10;99669.27;112529;1192;64806;-79
2021/10/26 07:15:33;;;;;;;85.70;66.10;;;;;;;2.76;88.95;99667.30;112534;1193;67408;-78
2021/10/26 07:18:00;;;;;;;95.00;71.40;;;;;;;2.81;88.68;99665.27;112554;1193;63983;-78
2021/10/26 07:20:27;;;;;;;95.20;75.40;;;;;;;2.91;88.70;99672.56;112382;1193;61839;-79
2021/10/26 07:22:54;;;;;;;100.20;78.90;;;;;;;3.03;88.78;99669.81;112366;1192;61051;-77
2021/10/26 07:25:23;;;;;;;97.20;72.30;;;;;;;3.11;88.43;99659.45;112591;1191;65903;-77
2021/10/26 07:27:53;;;;;;;107.00;75.00;;;;;;;3.12;88.22;99661.16;112480;1192;61048;-77
2021/10/26 07:30:19;;;;;;;95.70;73.80;;;;;;;3.12;88.05;99661.19;112559;1192;62670;-79
2021/10/26 07:32:46;;;;;;;103.00;77.10;;;;;;;3.12;88.22;99658.89;112532;1192;60966;-77
2021/10/26 07:35:14;;;;;;;98.10;72.40;;;;;;;3.17;88.16;99663.48;112539;1192;60978;-78
2021/10/26 07:37:46;;;;;;;93.00;73.50;;;;;;;3.24;88.36;99667.16;112565;1193;64488;-78
2021/10/26 07:40:15;;;;;;;100.30;78.10;;;;;;;3.32;88.32;99662.73;112562;1192;60975;-77
2021/10/26 07:42:41;;;;;;;106.00;81.20;;;;;;;3.47;88.35;99664.29;112585;1192;63980;-78
2021/10/26 07:45:09;;;;;;;105.40;82.30;;;;;;;3.61;88.29;99664.08;112323;1192;61132;-78
2021/10/26 07:47:37;;;;;;;108.60;79.50;;;;;;;3.71;88.00;99660.63;112566;1192;61055;-77
2021/10/26 07:50:06;;;;;;;104.80;77.40;;;;;;;3.78;87.70;99662.89;112516;1193;67383;-76
2021/10/26 07:52:33;;;;;;;111.60;83.50;;;;;;;3.85;87.57;99663.39;112522;1193;60917;-81
2021/10/26 07:55:01;;;;;;;90.40;69.40;;;;;;;3.93;87.58;99662.30;112162;1193;63659;-77
2021/10/26 07:57:29;;;;;;;88.00;66.10;;;;;;;4.04;87.48;99656.66;112504;1193;61058;-78
2021/10/26 07:59:57;;;;;;;81.10;62.10;;;;;;;4.19;87.39;99661.67;112502;1191;61167;-84
2021/10/26 08:02:24;;;;;;;82.80;62.20;;;;;;;4.33;87.25;99660.21;112526;1192;66881;-78
2021/10/26 08:04:55;;;;;;;82.20;60.40;;;;;;;4.48;86.89;99654.26;112526;1192;61042;-77
2021/10/26 08:07:23;;;;;;;83.50;60.80;;;;;;;4.64;86.60;99650.59;112524;1193;71653;-78
2021/10/26 08:09:52;;;;;;;79.00;63.30;;;;;;;4.81;86.26;99652.69;112532;1193;60968;-77
2021/10/26 08:12:21;;;;;;;78.70;63.10;;;;;;;5.01;85.98;99648.14;112567;1192;61055;-80
2021/10/26 08:14:48;;;;;;;85.70;68.00;;;;;;;5.17;85.79;99644.98;112576;1191;66192;-79
2021/10/26 08:17:16;;;;;;;80.80;67.30;;;;;;;5.35;85.69;99646.30;112538;1193;61119;-79
2021/10/26 08:19:45;;;;;;;80.50;67.60;;;;;;;5.54;85.46;99644.04;112570;1192;63786;-80
2021/10/26 08:22:17;;;;;;;78.40;61.00;;;;;;;5.71;85.17;99643.02;112575;1192;60985;-79
2021/10/26 08:24:50;;;;;;;67.50;54.10;;;;;;;5.86;84.78;99640.90;112553;1192;61045;-78
2021/10/26 08:27:17;;;;;;;64.30;51.00;;;;;;;6.04;84.40;99639.91;112543;1192;66046;-79
2021/10/26 08:37:10;;;;;;;78.40;61.50;;;;;;;6.91;83.42;99625.87;112537;1193;61052;-78
2021/10/26 08:39:38;;;;;;;82.00;66.10;;;;;;;7.06;83.17;99626.80;112502;1193;66182;-77
2021/10/26 08:42:08;;;;;;;83.80;63.30;;;;;;;7.19;82.97;99623.42;112593;1192;61027;-78
2021/10/26 08:44:36;;;;;;;94.60;74.10;;;;;;;7.35;82.72;99627.52;112582;1193;63827;-77
2021/10/26 08:47:03;;;;;;;87.40;69.90;;;;;;;7.50;82.57;99631.45;112487;1193;61055;-78
2021/10/26 08:49:30;;;;;;;99.10;78.00;;;;;;;7.69;82.32;99630.59;112534;1192;61072;-78
2021/10/26 08:51:57;;;;;;;111.20;87.60;;;;;;;7.91;82.07;99623.97;112536;1192;65597;-78
2021/10/26 08:54:24;;;;;;;98.50;79.00;;;;;;;8.11;81.92;99616.82;112526;1193;60943;-78
2021/10/26 08:56:51;;;;;;;99.70;79.70;;;;;;;8.32;81.84;99609.48;112369;1192;62626;-79
2021/10/26 08:59:22;;;;;;;91.50;76.00;;;;;;;8.52;81.55;99611.01;112567;1192;60995;-78
2021/10/26 09:01:51;;;;;;;97.60;77.00;;;;;;;8.70;81.42;99609.94;112540;1192;61026;-79
2021/10/26 09:04:18;;;;;;;96.70;75.10;;;;;;;8.89;81.28;99608.82;112583;1192;65618;-78
2021/10/26 09:06:50;;;;;;;89.20;71.10;;;;;;;9.11;80.79;99606.32;112557;1193;61049;-78
2021/10/26 09:09:19;;;;;;;95.30;71.70;;;;;;;9.31;80.36;99606.70;112325;1193;62778;-78
2021/10/26 09:16:40;;;;;;;88.20;69.50;;;;;;;9.43;79.93;99605.72;112333;1183;60971;-79
2021/10/26 09:17:26;;;;;;;83.40;65.80;;;;;;;9.70;79.11;99602.86;112520;1193;75579;-78
2021/10/26 09:20:01;;;;;;;83.90;68.30;;;;;;;9.75;78.34;99606.66;112541;1192;61126;-77
2021/10/26 09:22:30;;;;;;;91.00;71.50;;;;;;;9.76;78.04;99603.98;112533;1192;64659;-76
2021/10/26 09:25:03;;;;;;;88.90;70.80;;;;;;;9.71;77.85;99605.30;112570;1193;61039;-79
2021/10/26 09:27:31;;;;;;;89.30;70.90;;;;;;;9.66;77.90;99608.55;112551;1193;61066;-79
2021/10/26 09:30:01;;;;;;;88.70;70.70;;;;;;;9.65;77.57;99612.36;112457;1193;65240;-80
2021/10/26 09:32:40;;;;;;;85.80;69.30;;;;;;;9.67;77.51;99611.34;112538;1192;60966;-79
2021/10/26 09:35:09;;;;;;;87.10;68.20;;;;;;;9.76;77.40;99608.77;112427;1193;63743;-79
2021/10/26 09:37:38;;;;;;;76.70;60.00;;;;;;;9.80;76.88;99608.70;112563;1192;61139;-78
2021/10/26 09:40:07;;;;;;;70.20;55.20;;;;;;;9.84;76.27;99609.91;112591;1192;61045;-78
2021/10/26 09:43:06;;;;;;;70.10;51.40;;;;;;;9.82;75.46;99609.86;112271;1191;66784;-79
2021/10/26 09:45:33;;;;;;;64.30;48.30;;;;;;;9.80;75.36;99606.77;112431;1192;60883;-78
2021/10/26 09:48:23;;;;;;;55.00;44.30;;;;;;;9.82;75.35;99606.85;112567;1193;62459;-78
2021/10/26 09:51:03;;;;;;;61.60;44.60;;;;;;;9.89;74.93;99601.83;112539;1191;60988;-78
2021/10/26 09:53:34;;;;;;;58.20;42.10;;;;;;;10.00;74.66;99596.09;112610;1193;61071;-77
2021/10/26 09:56:05;;;;;;;51.20;41.40;;;;;;;10.13;74.56;99593.08;112549;1193;64745;-78
2021/10/26 09:58:33;;;;;;;61.10;43.00;;;;;;;10.27;74.17;99589.30;112599;1193;61093;-79
2021/10/26 10:01:07;;;;;;;47.40;34.10;;;;;;;10.43;73.88;99588.92;112538;1192;62688;-80
2021/10/26 10:03:34;;;;;;;103.30;66.10;;;;;;;10.68;73.54;99582.34;112588;1192;61077;-79
2021/10/26 10:06:06;;;;;;;58.90;42.00;;;;;;;10.88;72.79;99580.09;112493;1193;60956;-76
2021/10/26 10:08:38;;;;;;;48.10;37.30;;;;;;;11.05;72.10;99574.27;112508;1193;66849;-77
2021/10/26 10:11:05;;;;;;;50.40;36.60;;;;;;;11.20;71.54;99571.09;112367;1192;61262;-81
2021/10/26 10:13:33;;;;;;;44.60;31.70;;;;;;;11.35;71.15;99569.49;112312;1193;62617;-77
2021/10/26 10:16:03;;;;;;;40.30;30.80;;;;;;;11.47;70.43;99570.20;112580;1192;61033;-80
2021/10/26 10:18:30;;;;;;;37.10;28.20;;;;;;;11.52;70.62;99567.20;112361;1193;61016;-80
2021/10/26 10:20:57;;;;;;;39.30;30.80;;;;;;;11.53;70.31;99565.70;112355;1186;66678;-78
2021/10/26 10:23:25;;;;;;;46.30;34.50;;;;;;;11.44;69.55;99567.30;112555;1193;61013;-79
2021/10/26 10:25:53;;;;;;;42.70;32.60;;;;;;;11.27;69.41;99565.36;112314;1192;63614;-80
2021/10/26 10:28:28;;;;;;;42.00;31.60;;;;;;;11.14;69.47;99562.02;112533;1192;61025;-77
2021/10/26 10:30:58;;;;;;;41.40;30.00;;;;;;;11.10;69.81;99554.08;112491;1191;60994;-78
2021/10/26 10:33:25;;;;;;;42.10;29.20;;;;;;;11.14;69.58;99546.00;112519;1193;64427;-78
2021/10/26 10:35:57;;;;;;;41.20;31.00;;;;;;;11.16;68.97;99541.24;112344;1193;61129;-78
2021/10/26 10:38:29;;;;;;;38.30;29.20;;;;;;;11.20;68.76;99538.87;112356;1192;63647;-79
2021/10/26 10:41:22;;;;;;;36.10;28.40;;;;;;;11.17;68.31;99534.27;112581;1192;61036;-79
2021/10/26 10:43:50;;;;;;;37.30;28.40;;;;;;;11.23;69.04;99530.39;112466;1193;60933;-77
2021/10/26 10:46:44;;;;;;;38.50;28.70;;;;;;;11.38;69.00;99530.15;112373;1193;65851;-78
2021/10/26 10:49:20;;;;;;;39.20;30.30;;;;;;;11.53;69.10;99524.94;112514;1192;60970;-78
2021/10/26 10:51:55;;;;;;;38.70;29.20;;;;;;;11.70;69.04;99523.38;112565;1193;63736;-78
2021/10/26 10:54:51;;;;;;;38.90;30.00;;;;;;;11.85;68.54;99519.58;112519;1193;60943;-77
2021/10/26 10:57:35;;;;;;;39.80;30.80;;;;;;;11.99;68.24;99513.68;112571;1193;61049;-77
2021/10/26 11:00:20;;;;;;;37.90;29.80;;;;;;;12.18;68.33;99512.09;112510;1191;66039;-80
2021/10/26 11:02:52;;;;;;;34.00;26.40;;;;;;;12.35;67.64;99508.00;112507;1193;61134;-78
2021/10/26 11:05:30;;;;;;;34.70;26.90;;;;;;;12.46;66.94;99507.39;112518;1192;63819;-76
2021/10/26 11:08:02;;;;;;;38.60;27.60;;;;;;;12.54;67.48;99502.80;112544;1193;61137;-77
2021/10/26 11:10:51;;;;;;;27.60;21.30;;;;;;;12.68;66.80;99495.95;112521;1192;61074;-79
2021/10/26 11:13:21;;;;;;;34.20;23.70;;;;;;;12.79;66.78;99495.03;112544;1193;64746;-77
2021/10/26 11:15:50;;;;;;;32.00;22.10;;;;;;;12.91;66.62;99489.20;112654;1193;60943;-79
2021/10/26 11:18:39;;;;;;;23.50;18.10;;;;;;;13.00;66.50;99478.12;112461;1192;62478;-78
2021/10/26 11:21:08;;;;;;;24.30;19.10;;;;;;;13.10;66.19;99476.14;112598;1192;61045;-78